Time;durP1;ratioP1;P1;durP2;ratioP2;P2;SDS_P1;SDS_P2;PMS_P1;PMS_P2;Temp;Humidity;BMP_temperature;BMP_pressure;BME280_temperature;BME280_humidity;BME280_pressure;Samples;Min_cycle;Max_cycle;Signal;HPM_P1;HPM_P2
2023/09/17 00:06:03;;;;;;;18.07;10.73;;;21.50;99.90;;;;;;6981088;19;2004544;-90
2023/09/17 00:09:33;;;;;;;15.13;10.37;;;21.50;99.90;;;;;;7206205;19;2004131;-91
2023/09/17 00:12:20;;;;;;;18.23;9.63;;;21.50;99.90;;;;;;7186036;19;2004362;-91
2023/09/17 00:15:21;;;;;;;16.57;8.97;;;21.60;99.90;;;;;;7207795;19;2004464;-91
2023/09/17 00:18:56;;;;;;;14.67;9.03;;;21.60;99.90;;;;;;7183634;19;2004469;-90
2023/09/17 00:31:50;;;;;;;15.10;9.57;;;21.00;99.90;;;;;;7204023;19;2004197;-92
2023/09/17 00:38:49;;;;;;;15.00;8.80;;;20.90;99.90;;;;;;7202497;19;2004513;-91
2023/09/17 00:42:17;;;;;;;14.53;9.10;;;20.90;99.90;;;;;;7231773;19;2004549;-91
2023/09/17 01:02:53;;;;;;;12.30;7.30;;;21.10;99.90;;;;;;7403212;19;20148;-90
2023/09/17 01:06:12;;;;;;;13.80;7.97;;;21.00;99.90;;;;;;7282543;19;20193;-91
2023/09/17 01:09:03;;;;;;;11.30;7.03;;;21.10;99.90;;;;;;7079136;19;2020663;-91
2023/09/17 01:12:04;;;;;;;14.37;7.57;;;21.10;99.90;;;;;;7286090;19;20192;-91
2023/09/17 01:19:05;;;;;;;15.93;7.13;;;21.20;99.90;;;;;;7081677;19;2004523;-91
2023/09/17 01:22:38;;;;;;;;;;;;;;;;;;;;;
2023/09/17 01:25:18;;;;;;;11.97;6.57;;;21.30;99.90;;;;;;7181987;19;2004417;-91
2023/09/17 01:28:24;;;;;;;11.87;7.17;;;21.20;99.90;;;;;;7183239;19;2004308;-91
2023/09/17 01:31:39;;;;;;;11.93;6.73;;;21.20;99.90;;;;;;7079455;19;2004633;-90
2023/09/17 01:34:52;;;;;;;10.07;6.57;;;21.20;99.90;;;;;;7184545;19;2004437;-91
2023/09/17 01:38:11;;;;;;;12.20;6.80;;;21.10;99.90;;;;;;7172858;19;2004480;-91
2023/09/17 01:41:27;;;;;;;12.93;6.90;;;21.10;99.90;;;;;;7177734;19;2020326;-91
2023/09/17 01:45:10;;;;;;;10.23;6.70;;;21.10;99.90;;;;;;7160107;19;2004487;-91
2023/09/17 02:12:35;;;;;;;;;;;;;;;;;;;;;
2023/09/17 02:15:32;;;;;;;12.10;7.80;;;21.50;99.90;;;;;;7387288;19;20894;-91
2023/09/17 02:26:03;;;;;;;11.83;7.30;;;21.50;99.90;;;;;;7292995;19;20292;-90
2023/09/17 02:29:06;;;;;;;11.10;7.00;;;21.40;99.90;;;;;;7191208;19;2004584;-90
2023/09/17 02:32:07;;;;;;;13.73;7.60;;;21.50;99.90;;;;;;7086278;19;2004473;-91
2023/09/17 02:39:08;;;;;;;13.67;8.07;;;21.60;99.90;;;;;;6984641;19;2020552;-90
2023/09/17 02:41:51;;;;;;;11.83;7.87;;;21.50;99.90;;;;;;7191153;19;2004430;-91
2023/09/17 02:48:07;;;;;;;12.33;7.73;;;21.70;99.90;;;;;;7403912;19;20136;-91
2023/09/17 02:51:33;;;;;;;14.87;8.17;;;21.70;99.90;;;;;;7401947;19;20149;-91
2023/09/17 02:54:58;;;;;;;;;;;;;;;;;;;;;
2023/09/17 02:58:04;;;;;;;;;;;;;;;;;;;;;
2023/09/17 03:01:30;;;;;;;;;;;;;;;;;;;;;
2023/09/17 03:04:24;;;;;;;;;;;;;;;;;;;;;
2023/09/17 03:07:55;;;;;;;12.60;7.83;;;21.70;99.90;;;;;;7187513;19;2004672;-91
2023/09/17 03:10:29;;;;;;;14.53;8.20;;;21.80;99.90;;;;;;7291867;19;20185;-91
2023/09/17 03:17:09;;;;;;;12.07;7.80;;;21.60;99.90;;;;;;7186869;19;2004420;-91
2023/09/17 03:24:03;;;;;;;13.23;7.67;;;21.50;99.90;;;;;;7086395;19;2004458;-91
2023/09/17 03:26:48;;;;;;;13.47;7.93;;;21.40;99.90;;;;;;7187750;19;2004559;-90
2023/09/17 03:29:40;;;;;;;14.87;7.77;;;21.50;99.90;;;;;;7186281;19;2004535;-91
2023/09/17 03:32:15;;;;;;;12.60;7.80;;;21.50;99.90;;;;;;7273941;19;20199;-92
2023/09/17 03:38:29;;;;;;;16.17;9.40;;;21.60;99.90;;;;;;7188981;19;2004369;-91
2023/09/17 03:41:15;;;;;;;12.80;8.87;;;21.70;99.90;;;;;;7188406;19;2004463;-91
2023/09/17 03:44:41;;;;;;;15.17;8.00;;;21.70;99.90;;;;;;7191447;19;2004769;-91
2023/09/17 03:47:38;;;;;;;15.57;8.33;;;21.70;99.90;;;;;;7167474;19;2004357;-91
2023/09/17 03:50:33;;;;;;;14.97;9.80;;;21.70;99.90;;;;;;7275961;19;20188;-90
2023/09/17 03:53:54;;;;;;;16.70;9.00;;;21.80;99.90;;;;;;7186765;19;2004074;-91
2023/09/17 03:57:48;;;;;;;13.53;8.40;;;21.80;99.90;;;;;;7082760;19;2004395;-91
2023/09/17 04:07:38;;;;;;;17.83;10.70;;;21.50;99.90;;;;;;7084148;19;2004616;-91
2023/09/17 04:10:29;;;;;;;18.20;9.73;;;21.60;99.90;;;;;;7288634;19;20655;-91
2023/09/17 04:16:25;;;;;;;15.47;9.57;;;21.70;99.90;;;;;;7188950;19;2004530;-92
2023/09/17 04:19:09;;;;;;;13.47;9.33;;;21.70;99.90;;;;;;7207529;19;2004431;-91
2023/09/17 04:22:02;;;;;;;16.57;9.67;;;21.60;99.90;;;;;;7186950;19;2004713;-91
2023/09/17 04:24:55;;;;;;;17.10;10.70;;;21.60;99.90;;;;;;7189209;19;2004698;-91
2023/09/17 04:28:14;;;;;;;16.77;10.70;;;21.60;99.90;;;;;;7288876;19;20200;-91
2023/09/17 04:34:14;;;;;;;19.80;11.83;;;21.50;99.90;;;;;;7085573;19;2004633;-91
2023/09/17 04:37:11;;;;;;;18.63;12.50;;;21.50;99.90;;;;;;7285078;19;20204;-91
2023/09/17 04:40:31;;;;;;;;;;;;;;;;;;;;;
2023/09/17 04:46:57;;;;;;;24.43;17.00;;;21.60;99.90;;;;;;6979636;19;2020720;-91
2023/09/17 04:49:59;;;;;;;23.47;16.30;;;21.40;99.90;;;;;;7287585;19;20263;-91
2023/09/17 04:52:41;;;;;;;25.03;15.43;;;21.20;99.90;;;;;;7186267;19;2004403;-91
2023/09/17 04:55:53;;;;;;;28.33;19.10;;;21.10;99.90;;;;;;7184037;19;2004730;-91
2023/09/17 04:58:58;;;;;;;27.57;18.80;;;21.10;99.90;;;;;;7186579;19;2004397;-90
2023/09/17 05:01:49;;;;;;;;;;;;;;;;;;;;;
2023/09/17 05:04:34;;;;;;;31.97;21.73;;;21.20;99.90;;;;;;7187601;19;2004463;-91
2023/09/17 05:07:48;;;;;;;28.40;21.03;;;21.20;99.90;;;;;;7290545;19;20199;-91
2023/09/17 05:10:29;;;;;;;29.53;20.40;;;21.30;99.90;;;;;;7080464;19;2004400;-90
2023/09/17 05:13:06;;;;;;;33.87;22.77;;;21.30;99.90;;;;;;7285718;19;20222;-90
2023/09/17 05:19:41;;;;;;;37.47;24.43;;;21.40;99.90;;;;;;7084543;19;2004661;-90
2023/09/17 05:22:22;;;;;;;40.43;26.57;;;21.40;99.90;;;;;;7268247;19;20513;-90
2023/09/17 05:25:17;;;;;;;39.13;25.93;;;21.30;99.90;;;;;;7288777;19;20196;-90
2023/09/17 05:27:55;;;;;;;45.93;27.43;;;21.30;99.90;;;;;;7186684;19;2004455;-91
2023/09/17 05:30:26;;;;;;;42.83;27.03;;;21.20;99.90;;;;;;7289150;19;20233;-91
2023/09/17 05:32:57;;;;;;;40.37;27.57;;;21.20;99.90;;;;;;7288453;19;20196;-90
2023/09/17 05:35:24;;;;;;;45.40;28.07;;;21.20;99.90;;;;;;7289862;19;20192;-90
2023/09/17 05:37:50;;;;;;;41.60;26.70;;;21.30;99.90;;;;;;7290523;19;20198;-90
2023/09/17 05:40:31;;;;;;;39.27;26.57;;;21.30;99.90;;;;;;7288788;19;20175;-90
2023/09/17 05:43:19;;;;;;;45.83;27.53;;;21.10;99.90;;;;;;7289885;19;20191;-91
2023/09/17 05:45:56;;;;;;;41.47;25.77;;;21.00;99.90;;;;;;7187299;19;2004490;-90
2023/09/17 05:48:25;;;;;;;40.83;26.07;;;21.00;99.90;;;;;;7289734;19;20194;-91
2023/09/17 05:50:53;;;;;;;39.60;27.00;;;21.00;99.90;;;;;;7291418;19;20216;-90
2023/09/17 05:53:25;;;;;;;39.37;26.23;;;20.90;99.90;;;;;;7294722;19;20196;-90
2023/09/17 05:55:51;;;;;;;37.93;23.87;;;21.00;99.90;;;;;;7294842;19;20709;-91
2023/09/17 05:58:18;;;;;;;36.10;23.50;;;21.10;99.90;;;;;;7295125;19;20184;-90
2023/09/17 06:00:53;;;;;;;31.43;22.93;;;21.10;99.90;;;;;;7295358;19;20657;-89
2023/09/17 06:03:19;;;;;;;33.73;22.00;;;21.00;99.90;;;;;;7295578;19;20198;-91
2023/09/17 06:05:46;;;;;;;31.87;21.43;;;21.00;99.90;;;;;;7294518;19;20186;-90
2023/09/17 06:08:19;;;;;;;29.20;20.33;;;21.00;99.90;;;;;;7294633;19;20272;-91
2023/09/17 06:10:51;;;;;;;32.70;20.63;;;21.00;99.90;;;;;;7291759;19;20184;-90
2023/09/17 06:13:20;;;;;;;30.73;21.70;;;21.00;99.90;;;;;;7293159;19;20181;-89
2023/09/17 06:15:47;;;;;;;36.20;21.60;;;20.90;99.90;;;;;;7294233;19;20195;-91
2023/09/17 06:18:34;;;;;;;30.17;20.03;;;21.00;99.90;;;;;;7295367;19;20180;-90
2023/09/17 06:21:00;;;;;;;30.77;20.23;;;21.00;99.90;;;;;;7294020;19;20248;-90
2023/09/17 06:23:29;;;;;;;31.97;20.30;;;21.10;99.90;;;;;;7295925;19;20183;-90
2023/09/17 06:26:23;;;;;;;31.37;19.37;;;21.10;99.90;;;;;;7294226;19;20217;-90
2023/09/17 06:28:50;;;;;;;26.67;17.27;;;21.20;99.90;;;;;;7191757;19;2004457;-90
2023/09/17 06:31:17;;;;;;;27.37;18.37;;;21.10;99.90;;;;;;7293509;19;20216;-90
2023/09/17 06:33:47;;;;;;;27.33;18.40;;;21.20;99.90;;;;;;7294878;19;20189;-90
2023/09/17 06:36:14;;;;;;;26.30;18.07;;;21.20;99.90;;;;;;7294437;19;20195;-90
2023/09/17 06:38:49;;;;;;;25.63;17.87;;;21.30;99.90;;;;;;7304174;19;20184;-91
2023/09/17 06:41:16;;;;;;;26.33;19.03;;;21.40;99.90;;;;;;7294369;19;20199;-90
2023/09/17 06:43:48;;;;;;;29.40;18.43;;;21.40;99.90;;;;;;7294766;19;20186;-90
2023/09/17 06:46:15;;;;;;;25.77;17.70;;;21.40;99.90;;;;;;7294015;19;20184;-90
2023/09/17 06:48:41;;;;;;;25.27;16.93;;;21.40;99.90;;;;;;7294814;19;20180;-90
2023/09/17 06:51:10;;;;;;;24.47;17.13;;;21.40;99.90;;;;;;7308408;19;20189;-91
2023/09/17 06:53:36;;;;;;;24.83;17.83;;;21.50;99.90;;;;;;7315331;19;20181;-91
2023/09/17 06:56:02;;;;;;;24.03;17.60;;;21.50;99.90;;;;;;7294508;19;20180;-90
2023/09/17 06:58:35;;;;;;;26.97;17.63;;;21.60;99.90;;;;;;7294057;19;20182;-90
2023/09/17 07:01:11;;;;;;;25.20;17.63;;;21.60;99.90;;;;;;7270664;19;20926;-90
2023/09/17 07:03:40;;;;;;;24.63;16.50;;;21.70;99.90;;;;;;7315484;19;20191;-90
2023/09/17 07:06:09;;;;;;;28.20;17.30;;;21.80;99.90;;;;;;7294621;19;20196;-91
2023/09/17 07:08:38;;;;;;;27.17;17.83;;;21.80;99.90;;;;;;7294342;19;20185;-90
2023/09/17 07:11:10;;;;;;;28.03;18.07;;;21.80;99.90;;;;;;7293774;19;20195;-90
2023/09/17 07:13:38;;;;;;;27.10;19.13;;;21.80;99.90;;;;;;7292797;19;20181;-90
2023/09/17 07:16:05;;;;;;;27.50;17.80;;;21.90;99.90;;;;;;7293668;19;20205;-91
2023/09/17 07:18:31;;;;;;;26.70;18.00;;;22.00;99.90;;;;;;7289431;19;20184;-90
2023/09/17 07:20:58;;;;;;;24.73;17.50;;;22.00;99.90;;;;;;7293173;19;20294;-90
2023/09/17 07:23:27;;;;;;;27.60;18.03;;;21.90;99.90;;;;;;7292385;19;20604;-88
2023/09/17 07:25:58;;;;;;;25.90;17.10;;;22.00;99.90;;;;;;7291445;19;20253;-90
2023/09/17 07:28:36;;;;;;;26.10;16.90;;;22.00;99.90;;;;;;7292896;19;20230;-91
2023/09/17 07:31:11;;;;;;;25.07;17.33;;;22.10;99.90;;;;;;7294053;19;20209;-90
2023/09/17 07:33:44;;;;;;;26.47;18.53;;;22.20;99.90;;;;;;7293303;19;20188;-91
2023/09/17 07:36:14;;;;;;;29.30;19.03;;;22.30;99.90;;;;;;7274931;19;20189;-91
2023/09/17 07:38:55;;;;;;;30.60;19.33;;;22.30;99.90;;;;;;7292009;19;20556;-91
2023/09/17 07:41:21;;;;;;;29.63;19.93;;;22.40;99.90;;;;;;7292759;19;20267;-91
2023/09/17 07:43:58;;;;;;;28.30;19.07;;;22.30;99.90;;;;;;7291715;19;20180;-90
2023/09/17 07:46:32;;;;;;;34.97;22.33;;;22.30;99.90;;;;;;7293438;19;20185;-90
2023/09/17 07:49:11;;;;;;;41.93;25.80;;;22.20;99.90;;;;;;7293210;19;20178;-91
2023/09/17 07:51:39;;;;;;;44.30;27.93;;;22.20;99.90;;;;;;7295299;19;20191;-91
2023/09/17 07:54:12;;;;;;;44.90;25.40;;;22.30;99.90;;;;;;7292087;19;20195;-90
2023/09/17 07:56:43;;;;;;;38.60;23.47;;;22.30;99.90;;;;;;7289472;19;20185;-90
2023/09/17 07:59:10;;;;;;;37.37;24.93;;;22.20;99.90;;;;;;7304149;19;20191;-91
2023/09/17 08:01:47;;;;;;;39.17;23.20;;;22.30;99.90;;;;;;7312280;19;20189;-89
2023/09/17 08:04:14;;;;;;;39.13;23.70;;;22.30;99.90;;;;;;7270725;19;20205;-90
2023/09/17 08:06:50;;;;;;;37.43;24.80;;;22.40;99.90;;;;;;7290986;19;20733;-91
2023/09/17 08:09:24;;;;;;;36.33;24.23;;;22.40;99.90;;;;;;7290874;19;20187;-91
2023/09/17 08:12:02;;;;;;;41.67;24.80;;;22.40;99.90;;;;;;7288707;19;20189;-91
2023/09/17 08:14:46;;;;;;;33.83;22.03;;;22.50;99.90;;;;;;7289603;19;20239;-91
2023/09/17 08:17:34;;;;;;;30.93;21.13;;;22.40;99.90;;;;;;7186247;19;2004154;-91
2023/09/17 08:20:15;;;;;;;36.93;22.43;;;22.50;99.90;;;;;;7292414;19;20180;-91
2023/09/17 08:23:09;;;;;;;35.47;22.77;;;22.50;99.90;;;;;;7177854;19;2004459;-91
2023/09/17 08:25:55;;;;;;;36.57;23.10;;;22.60;99.90;;;;;;7285923;19;20185;-91
2023/09/17 08:28:27;;;;;;;41.50;25.83;;;22.70;99.90;;;;;;7188272;19;2004401;-91
2023/09/17 08:30:57;;;;;;;34.47;24.40;;;22.70;99.90;;;;;;7290743;19;20201;-91
2023/09/17 08:36:29;;;;;;;30.33;19.43;;;23.00;99.90;;;;;;7188339;19;2004653;-91
2023/09/17 08:38:58;;;;;;;29.03;17.83;;;23.00;99.90;;;;;;7289995;19;20185;-92
2023/09/17 08:41:57;;;;;;;27.70;16.73;;;23.20;99.90;;;;;;7288791;19;20935;-91
2023/09/17 08:45:14;;;;;;;24.67;16.17;;;23.30;99.90;;;;;;7178129;19;2004545;-91
2023/09/17 08:47:49;;;;;;;24.17;13.80;;;23.40;99.90;;;;;;7268675;19;20693;-91
2023/09/17 08:50:45;;;;;;;19.33;12.37;;;23.40;99.90;;;;;;7290923;19;20249;-91
2023/09/17 08:53:31;;;;;;;18.67;11.57;;;23.50;99.90;;;;;;7186295;19;2004475;-92
2023/09/17 08:56:01;;;;;;;17.23;12.13;;;23.50;99.90;;;;;;7291370;19;20205;-91
2023/09/17 08:58:43;;;;;;;18.00;11.60;;;23.80;99.90;;;;;;7288777;19;20185;-90
2023/09/17 09:01:26;;;;;;;16.23;11.63;;;24.00;99.90;;;;;;7281278;19;20577;-91
2023/09/17 09:04:27;;;;;;;20.93;12.23;;;24.20;99.90;;;;;;7290848;19;20562;-91
2023/09/17 09:07:29;;;;;;;16.73;11.13;;;24.30;99.90;;;;;;7188093;19;2004617;-90
2023/09/17 09:10:06;;;;;;;18.40;12.03;;;24.40;99.90;;;;;;7187758;19;2020619;-91
2023/09/17 09:12:37;;;;;;;15.87;11.43;;;24.30;99.90;;;;;;7290042;19;20199;-91
2023/09/17 09:15:05;;;;;;;18.73;12.90;;;24.20;99.90;;;;;;7290871;19;20626;-91
2023/09/17 09:17:31;;;;;;;17.83;11.77;;;24.30;99.90;;;;;;7290372;19;20232;-90
2023/09/17 09:19:58;;;;;;;18.03;10.63;;;24.30;99.90;;;;;;7290238;19;20208;-91
2023/09/17 09:22:25;;;;;;;19.40;11.50;;;24.40;99.90;;;;;;7293304;19;20177;-90
2023/09/17 09:24:51;;;;;;;19.37;11.57;;;24.40;99.90;;;;;;7299701;19;20205;-91
2023/09/17 09:27:20;;;;;;;19.57;12.43;;;24.40;99.90;;;;;;7297068;19;20188;-90
2023/09/17 09:29:54;;;;;;;18.77;12.17;;;24.50;99.90;;;;;;7291168;19;20188;-91
2023/09/17 09:32:20;;;;;;;44.30;33.43;;;24.30;99.90;;;;;;7298300;19;20192;-91
2023/09/17 09:34:51;;;;;;;27.83;18.87;;;24.20;99.90;;;;;;7299201;19;20188;-90
2023/09/17 09:37:23;;;;;;;25.70;18.67;;;24.30;99.90;;;;;;7297193;19;20177;-91
2023/09/17 09:39:52;;;;;;;23.50;15.43;;;24.50;99.90;;;;;;7297295;19;20184;-91
2023/09/17 09:42:22;;;;;;;22.60;16.73;;;24.60;99.90;;;;;;7296199;19;20197;-90
2023/09/17 09:44:53;;;;;;;18.20;12.20;;;24.70;99.90;;;;;;7297177;19;20188;-91
2023/09/17 09:47:25;;;;;;;18.43;13.07;;;24.80;99.90;;;;;;7297265;19;20188;-91
2023/09/17 09:49:51;;;;;;;19.45;13.70;;;24.80;99.90;;;;;;7298805;19;20308;-91
2023/09/17 09:52:24;;;;;;;20.83;14.52;;;24.80;99.90;;;;;;7299165;19;20189;-92
2023/09/17 09:54:50;;;;;;;20.23;13.23;;;25.00;99.90;;;;;;7299154;19;20181;-92
2023/09/17 09:57:18;;;;;;;19.20;13.73;;;25.20;99.90;;;;;;7293328;19;20281;-91
2023/09/17 09:59:50;;;;;;;21.23;14.00;;;25.40;99.90;;;;;;7298017;19;20693;-91
2023/09/17 10:02:21;;;;;;;18.85;13.40;;;25.80;99.90;;;;;;7297066;19;20192;-91
2023/09/17 10:04:47;;;;;;;48.25;31.17;;;26.00;99.90;;;;;;7296218;19;20221;-92
2023/09/17 10:07:15;;;;;;;19.88;13.63;;;26.10;99.90;;;;;;7298495;19;20196;-91
2023/09/17 10:09:46;;;;;;;17.17;12.48;;;26.10;99.90;;;;;;7301242;19;20191;-90
2023/09/17 10:12:12;;;;;;;19.67;13.65;;;26.20;99.90;;;;;;7298308;19;20189;-91
2023/09/17 10:14:38;;;;;;;23.35;16.95;;;26.40;99.90;;;;;;7318722;19;20184;-91
2023/09/17 10:17:07;;;;;;;30.88;23.48;;;26.60;99.90;;;;;;7296458;19;20195;-91
2023/09/17 10:19:40;;;;;;;21.55;16.73;;;26.90;99.90;;;;;;7296234;19;20188;-91
2023/09/17 10:22:09;;;;;;;19.77;13.77;;;27.50;99.90;;;;;;7296316;19;20180;-91
2023/09/17 10:24:41;;;;;;;19.75;13.98;;;28.60;99.90;;;;;;7295555;19;20177;-91
2023/09/17 10:27:13;;;;;;;15.57;9.48;;;29.30;99.90;;;;;;7296188;19;20213;-90
2023/09/17 10:29:41;;;;;;;11.85;7.63;;;28.50;99.90;;;;;;7295153;19;20202;-91
2023/09/17 10:32:09;;;;;;;12.23;7.82;;;28.60;99.90;;;;;;7293996;19;20229;-91
2023/09/17 10:34:38;;;;;;;12.10;6.65;;;30.00;99.90;;;;;;7293337;19;20193;-91
2023/09/17 10:37:05;;;;;;;11.43;6.45;;;30.90;99.90;;;;;;7294189;19;20271;-90
2023/09/17 10:39:37;;;;;;;12.35;7.20;;;31.30;99.90;;;;;;7295456;19;20181;-91
2023/09/17 10:42:11;;;;;;;10.88;6.15;;;31.80;99.90;;;;;;7295660;19;20195;-91
2023/09/17 10:44:49;;;;;;;11.68;6.43;;;32.40;99.90;;;;;;7296718;19;20205;-92
2023/09/17 10:47:18;;;;;;;10.70;6.63;;;32.10;99.90;;;;;;7193576;19;2004458;-90
2023/09/17 10:49:47;;;;;;;9.25;5.60;;;32.20;99.90;;;;;;7295511;19;20177;-91
2023/09/17 10:52:16;;;;;;;10.95;6.10;;;32.10;99.90;;;;;;7295686;19;20185;-91
2023/09/17 10:54:48;;;;;;;10.93;5.78;;;31.70;99.90;;;;;;7294793;19;20169;-91
2023/09/17 10:57:35;;;;;;;8.25;5.10;;;31.20;99.90;;;;;;7296034;19;20185;-91
2023/09/17 11:00:04;;;;;;;10.57;6.38;;;31.30;99.90;;;;;;7293896;19;20182;-91
2023/09/17 11:02:36;;;;;;;9.75;6.25;;;31.50;99.90;;;;;;7296042;19;20189;-91
2023/09/17 11:05:09;;;;;;;10.98;6.40;;;32.10;99.90;;;;;;7296224;19;20184;-90
2023/09/17 11:07:36;;;;;;;8.80;6.25;;;32.30;99.90;;;;;;7293923;19;20193;-90
2023/09/17 11:10:04;;;;;;;11.02;6.25;;;32.40;99.90;;;;;;7295506;19;20176;-91
2023/09/17 11:12:31;;;;;;;10.30;5.95;;;32.40;99.90;;;;;;7295161;19;20183;-90
2023/09/17 11:14:58;;;;;;;8.43;6.00;;;32.10;99.90;;;;;;7293292;19;20189;-91
2023/09/17 11:17:37;;;;;;;10.35;5.70;;;31.90;99.90;;;;;;7292027;19;20193;-91
2023/09/17 11:20:16;;;;;;;9.27;5.80;;;31.60;99.90;;;;;;7294979;19;20185;-91
2023/09/17 11:22:44;;;;;;;8.88;5.80;;;31.50;99.90;;;;;;7281419;19;20185;-90
2023/09/17 11:25:11;;;;;;;10.25;6.15;;;31.90;99.90;;;;;;7296323;19;20206;-91
2023/09/17 11:27:50;;;;;;;9.75;6.13;;;31.40;99.90;;;;;;7316192;19;20165;-91
2023/09/17 11:30:23;;;;;;;9.75;5.82;;;31.40;99.90;;;;;;7191216;19;2004624;-91
2023/09/17 11:33:06;;;;;;;9.88;5.88;;;31.50;99.90;;;;;;7294020;19;20218;-91
2023/09/17 11:35:36;;;;;;;10.50;5.68;;;31.80;99.90;;;;;;7295989;19;20201;-91
2023/09/17 11:38:03;;;;;;;9.43;5.88;;;32.10;99.90;;;;;;7296760;19;20188;-90
2023/09/17 11:40:39;;;;;;;9.10;6.20;;;32.50;99.90;;;;;;7293455;19;20193;-91
2023/09/17 11:43:08;;;;;;;10.82;6.15;;;32.80;99.90;;;;;;7293803;19;20177;-91
2023/09/17 11:45:40;;;;;;;8.30;5.22;;;32.40;99.90;;;;;;7290523;19;20693;-90
2023/09/17 11:48:18;;;;;;;8.63;5.80;;;32.20;99.90;;;;;;7291938;19;20181;-91
2023/09/17 11:50:47;;;;;;;9.60;5.45;;;31.80;99.90;;;;;;7269299;19;20205;-90
2023/09/17 11:53:16;;;;;;;8.85;5.65;;;31.70;99.90;;;;;;7290765;19;20192;-91
2023/09/17 11:55:52;;;;;;;9.60;5.07;;;32.10;99.90;;;;;;7310679;19;20687;-90
2023/09/17 11:58:21;;;;;;;9.40;5.40;;;32.00;99.90;;;;;;7291022;19;20523;-90
2023/09/17 12:00:56;;;;;;;8.38;5.55;;;32.10;99.90;;;;;;7291648;19;20188;-92
2023/09/17 12:03:26;;;;;;;6.13;4.38;;;32.40;99.90;;;;;;7291600;19;20223;-92
2023/09/17 12:05:53;;;;;;;8.05;4.88;;;32.70;99.90;;;;;;7291874;19;20652;-90
2023/09/17 12:08:23;;;;;;;7.28;4.70;;;32.90;99.90;;;;;;7379189;19;20138;-91
2023/09/17 12:11:00;;;;;;;8.30;5.20;;;33.10;99.90;;;;;;7292754;19;20217;-91
2023/09/17 12:13:33;;;;;;;8.05;4.50;;;33.10;99.90;;;;;;7289659;19;20200;-91
2023/09/17 12:16:08;;;;;;;7.00;4.15;;;33.00;99.90;;;;;;7291426;19;20208;-90
2023/09/17 12:18:34;;;;;;;9.73;4.53;;;33.00;99.90;;;;;;7291896;19;20218;-91
2023/09/17 12:21:07;;;;;;;6.65;4.45;;;33.40;99.90;;;;;;7290866;19;20205;-90
2023/09/17 12:23:54;;;;;;;6.25;4.18;;;33.40;99.90;;;;;;7290591;19;20193;-90
2023/09/17 12:26:31;;;;;;;6.68;4.30;;;33.40;99.90;;;;;;7184667;19;2004537;-91
2023/09/17 12:29:11;;;;;;;7.40;4.30;;;33.20;99.90;;;;;;7289769;19;20373;-91
2023/09/17 12:31:41;;;;;;;5.75;4.07;;;33.00;99.90;;;;;;7323533;19;20199;-89
2023/09/17 12:34:13;;;;;;;8.15;4.30;;;32.90;99.90;;;;;;7285227;19;20252;-90
2023/09/17 12:36:58;;;;;;;9.10;4.30;;;33.40;99.90;;;;;;7314961;19;20197;-90
2023/09/17 12:39:43;;;;;;;5.88;3.90;;;33.60;99.90;;;;;;7187595;19;2004534;-90
2023/09/17 12:42:11;;;;;;;6.60;3.78;;;32.90;99.90;;;;;;7267164;19;20192;-90
2023/09/17 12:44:48;;;;;;;7.20;4.07;;;32.40;99.90;;;;;;7313061;19;20655;-90
2023/09/17 12:47:19;;;;;;;6.65;3.83;;;32.10;99.90;;;;;;7186253;19;2004531;-90
2023/09/17 12:49:45;;;;;;;6.68;3.78;;;31.60;99.90;;;;;;7290847;19;20192;-90
2023/09/17 12:52:18;;;;;;;6.82;4.15;;;31.60;99.90;;;;;;7311660;19;20264;-90
2023/09/17 12:55:03;;;;;;;5.63;3.97;;;31.60;99.90;;;;;;7186893;19;2004335;-91
2023/09/17 12:57:35;;;;;;;7.85;4.13;;;31.60;99.90;;;;;;7288196;19;20197;-90
2023/09/17 13:00:03;;;;;;;7.25;4.22;;;31.60;99.90;;;;;;7290136;19;20190;-90
2023/09/17 13:02:30;;;;;;;7.72;4.25;;;31.30;99.90;;;;;;7288052;19;20189;-90
2023/09/17 13:04:56;;;;;;;7.35;4.40;;;30.80;99.90;;;;;;7289281;19;20585;-90
2023/09/17 13:07:24;;;;;;;6.72;4.60;;;30.30;99.90;;;;;;7290642;19;20632;-90
2023/09/17 13:09:55;;;;;;;6.50;4.00;;;30.30;99.90;;;;;;7290964;19;20218;-91
2023/09/17 13:12:27;;;;;;;7.82;4.18;;;30.40;99.90;;;;;;7290148;19;20204;-90
2023/09/17 13:14:54;;;;;;;5.82;3.80;;;30.60;99.90;;;;;;7289018;19;20196;-91
2023/09/17 13:17:29;;;;;;;7.57;4.20;;;30.70;99.90;;;;;;7288455;19;20189;-90
2023/09/17 13:19:57;;;;;;;5.95;3.95;;;30.60;99.90;;;;;;7289477;19;20201;-90
2023/09/17 13:22:30;;;;;;;6.30;4.03;;;30.50;99.90;;;;;;7288381;19;20658;-91
2023/09/17 13:24:57;;;;;;;7.38;4.13;;;30.50;99.90;;;;;;7287827;19;20201;-90
2023/09/17 13:27:23;;;;;;;6.50;3.70;;;30.70;99.90;;;;;;7285950;19;20204;-90
2023/09/17 13:29:54;;;;;;;6.20;3.75;;;30.50;99.90;;;;;;7284089;19;20184;-91
2023/09/17 13:32:20;;;;;;;7.10;4.03;;;30.40;99.90;;;;;;7286161;19;20222;-91
2023/09/17 13:34:47;;;;;;;7.10;3.72;;;30.10;99.90;;;;;;7288161;19;20184;-91
2023/09/17 13:37:14;;;;;;;4.88;3.38;;;30.10;99.90;;;;;;7287870;19;20626;-91
2023/09/17 13:39:48;;;;;;;8.15;3.85;;;30.30;99.90;;;;;;7297570;19;20193;-90
2023/09/17 13:42:17;;;;;;;6.00;3.80;;;30.40;99.90;;;;;;7287741;19;20302;-91
2023/09/17 13:44:46;;;;;;;5.35;3.30;;;30.60;99.90;;;;;;7288887;19;20193;-91
2023/09/17 13:47:14;;;;;;;6.38;3.65;;;30.60;99.90;;;;;;7287849;19;20216;-90
2023/09/17 13:49:45;;;;;;;5.00;3.35;;;30.60;99.90;;;;;;7286416;19;20189;-91
2023/09/17 13:52:23;;;;;;;7.15;3.80;;;30.40;99.90;;;;;;7249628;19;20193;-91
2023/09/17 13:55:03;;;;;;;7.30;3.70;;;30.40;99.90;;;;;;7286462;19;20197;-91
2023/09/17 13:57:43;;;;;;;6.43;3.80;;;30.40;99.90;;;;;;7285992;19;20209;-91
2023/09/17 14:00:13;;;;;;;7.85;3.70;;;30.40;99.90;;;;;;7286665;19;20197;-90
2023/09/17 14:02:41;;;;;;;6.85;3.83;;;30.10;99.90;;;;;;7288321;19;20308;-91
2023/09/17 14:05:13;;;;;;;7.30;3.60;;;29.90;99.90;;;;;;7288434;19;20644;-91
2023/09/17 14:07:39;;;;;;;4.78;3.35;;;30.00;99.90;;;;;;7288107;19;20218;-91
2023/09/17 14:10:08;;;;;;;6.95;3.50;;;30.10;99.90;;;;;;7290315;19;20222;-90
2023/09/17 14:12:39;;;;;;;7.38;3.70;;;30.10;99.90;;;;;;7294867;19;20269;-92
2023/09/17 14:15:21;;;;;;;6.30;3.50;;;29.90;99.90;;;;;;7189782;19;2004360;-91
2023/09/17 14:17:52;;;;;;;5.00;3.08;;;29.90;99.90;;;;;;7294114;19;20185;-90
2023/09/17 14:20:22;;;;;;;5.18;3.63;;;29.70;99.90;;;;;;7294449;19;20185;-90
2023/09/17 14:22:50;;;;;;;7.00;3.53;;;29.50;99.90;;;;;;7295507;19;20196;-91
2023/09/17 14:25:19;;;;;;;7.95;3.55;;;29.40;99.90;;;;;;7294479;19;20849;-91
2023/09/17 14:27:51;;;;;;;4.80;3.00;;;29.30;99.90;;;;;;7293561;19;20660;-92
2023/09/17 14:30:24;;;;;;;6.07;3.20;;;29.30;99.90;;;;;;7294009;19;20197;-90
2023/09/17 14:33:00;;;;;;;5.30;3.00;;;29.30;99.90;;;;;;7293974;19;20193;-91
2023/09/17 14:35:30;;;;;;;4.82;2.50;;;29.20;99.90;;;;;;7294919;19;20252;-91
2023/09/17 14:37:59;;;;;;;7.15;2.90;;;29.30;99.90;;;;;;7292977;19;20189;-90
2023/09/17 14:40:30;;;;;;;4.68;2.78;;;29.20;99.90;;;;;;7294873;19;20201;-91
2023/09/17 14:42:57;;;;;;;5.22;2.70;;;29.10;99.90;;;;;;7292886;19;20295;-92
2023/09/17 14:45:36;;;;;;;4.43;2.65;;;28.80;99.90;;;;;;7294465;19;20206;-90
2023/09/17 14:48:05;;;;;;;4.10;2.90;;;28.60;99.90;;;;;;7293061;19;20186;-90
2023/09/17 14:50:31;;;;;;;4.20;2.70;;;28.40;99.90;;;;;;7294406;19;20182;-91
2023/09/17 14:53:00;;;;;;;5.50;3.28;;;28.60;99.90;;;;;;7292834;19;20196;-90
2023/09/17 14:55:30;;;;;;;5.35;2.80;;;28.70;99.90;;;;;;7291526;19;20188;-90
2023/09/17 14:58:05;;;;;;;5.95;3.10;;;28.50;99.90;;;;;;7292504;19;20180;-91
2023/09/17 15:00:32;;;;;;;5.63;3.13;;;28.50;99.90;;;;;;7291645;19;20193;-91
2023/09/17 15:02:58;;;;;;;6.05;3.17;;;28.50;99.90;;;;;;7290619;19;20195;-89
2023/09/17 15:05:26;;;;;;;6.82;3.50;;;28.50;99.90;;;;;;7292508;19;20197;-91
2023/09/17 15:07:59;;;;;;;5.28;3.00;;;28.50;99.90;;;;;;7292813;19;20189;-91
2023/09/17 15:10:26;;;;;;;4.30;3.05;;;28.50;99.90;;;;;;7292076;19;20642;-91
2023/09/17 15:12:52;;;;;;;6.97;3.45;;;28.60;99.90;;;;;;7293201;19;20189;-92
2023/09/17 15:15:18;;;;;;;5.95;3.45;;;28.70;99.90;;;;;;7293728;19;20184;-92
2023/09/17 15:17:57;;;;;;;7.68;2.97;;;28.70;99.90;;;;;;7292031;19;20672;-91
2023/09/17 15:20:25;;;;;;;6.50;3.47;;;28.70;99.90;;;;;;7291231;19;20185;-91
2023/09/17 15:22:56;;;;;;;7.13;3.50;;;28.80;99.90;;;;;;7292425;19;20189;-91
2023/09/17 15:25:22;;;;;;;6.13;3.63;;;28.80;99.90;;;;;;7291050;19;20189;-91
2023/09/17 15:27:58;;;;;;;7.32;3.20;;;28.90;99.90;;;;;;7291984;19;20189;-91
2023/09/17 15:30:27;;;;;;;7.72;3.67;;;28.90;99.90;;;;;;7291698;19;20184;-91
2023/09/17 15:33:08;;;;;;;8.60;3.90;;;28.80;99.90;;;;;;7289182;19;20244;-93
2023/09/17 15:35:36;;;;;;;5.30;3.15;;;28.70;99.90;;;;;;7286616;19;20222;-90